createdAt,value
2018-11-05T00:00:02.720Z,100810.30
2018-11-05T00:02:31.284Z,100805.40
2018-11-05T00:05:02.349Z,100808.71
2018-11-05T00:07:30.944Z,100815.08
2018-11-05T00:09:59.476Z,100814.57
2018-11-05T00:12:28.148Z,100815.27
2018-11-05T00:14:56.653Z,100814.98
2018-11-05T00:17:25.226Z,100805.53
2018-11-05T00:19:53.801Z,100805.43
2018-11-05T00:22:22.308Z,100806.84
2018-11-05T00:24:50.878Z,100807.25
2018-11-05T00:27:19.568Z,100806.27
2018-11-05T00:29:48.132Z,100803.44
2018-11-05T00:32:16.717Z,100791.05
2018-11-05T00:34:45.509Z,100790.32
2018-11-05T00:37:14.079Z,100791.59
2018-11-05T00:39:42.570Z,100789.09
2018-11-05T00:42:11.161Z,100793.63
2018-11-05T00:44:39.997Z,100798.17
2018-11-05T00:47:08.550Z,100803.83
2018-11-05T00:49:37.076Z,100804.49
2018-11-05T00:52:06.193Z,100798.17
2018-11-05T00:54:34.734Z,100789.09
2018-11-05T00:57:04.924Z,100785.43
2018-11-05T00:59:33.452Z,100789.30
2018-11-05T01:02:04.135Z,100791.88
2018-11-05T01:04:32.697Z,100794.84
2018-11-05T01:07:03.529Z,100795.69
2018-11-05T01:09:32.055Z,100790.59
2018-11-05T01:12:00.598Z,100789.44
2018-11-05T01:14:29.159Z,100790.88
2018-11-05T01:16:57.706Z,100786.97
2018-11-05T01:19:26.260Z,100776.39
2018-11-05T01:21:54.785Z,100772.32
2018-11-05T01:24:23.293Z,100778.42
2018-11-05T01:26:51.842Z,100781.21
2018-11-05T01:29:20.386Z,100778.08
2018-11-05T01:31:48.945Z,100779.94
2018-11-05T01:34:17.494Z,100778.59
2018-11-05T01:36:46.031Z,100773.55
2018-11-05T01:39:14.562Z,100770.61
2018-11-05T01:41:43.228Z,100765.38
2018-11-05T01:44:11.785Z,100765.77
2018-11-05T01:46:40.310Z,100767.62
2018-11-05T01:49:08.800Z,100765.11
2018-11-05T01:51:37.458Z,100762.16
2018-11-05T01:54:06.279Z,100762.93
2018-11-05T01:56:34.845Z,100751.12
2018-11-05T01:59:04.963Z,100754.16
2018-11-05T02:01:33.544Z,100745.83
2018-11-05T02:04:04.163Z,100742.80
2018-11-05T02:06:32.705Z,100741.64
2018-11-05T02:09:04.203Z,100735.09
2018-11-05T02:11:32.737Z,100734.53
2018-11-05T02:14:04.139Z,100736.38
2018-11-05T02:16:32.708Z,100739.97
2018-11-05T02:19:03.250Z,100739.05
2018-11-05T02:21:31.816Z,100731.69
2018-11-05T02:24:00.383Z,100730.73
2018-11-05T02:26:28.920Z,100733.94
2018-11-05T02:28:57.896Z,100731.46
2018-11-05T02:31:26.418Z,100733.94
2018-11-05T02:33:54.944Z,100733.91
2018-11-05T02:36:23.477Z,100728.22
2018-11-05T02:38:51.982Z,100713.30
2018-11-05T02:41:20.547Z,100708.30
2018-11-05T02:43:49.052Z,100703.41
2018-11-05T02:46:17.649Z,100699.09
2018-11-05T02:48:46.482Z,100704.48
2018-11-05T02:51:15.261Z,100716.75
2018-11-05T02:53:43.757Z,100711.65
2018-11-05T02:56:12.384Z,100713.73
2018-11-05T02:58:40.934Z,100714.19
2018-11-05T03:01:09.452Z,100713.80
2018-11-05T03:03:38.016Z,100716.91
2018-11-05T03:06:06.597Z,100715.89
2018-11-05T03:08:35.100Z,100722.09
2018-11-05T03:11:04.888Z,100729.33
2018-11-05T03:13:33.432Z,100732.00
2018-11-05T03:16:02.795Z,100730.45
2018-11-05T03:18:31.319Z,100732.61
2018-11-05T03:21:03.226Z,100724.24
2018-11-05T03:23:31.869Z,100719.66
2018-11-05T03:26:00.448Z,100718.81
2018-11-05T03:28:29.494Z,100725.64
2018-11-05T03:30:58.091Z,100710.22
2018-11-05T03:33:26.604Z,100713.17
2018-11-05T03:35:55.591Z,100711.52
2018-11-05T03:38:24.106Z,100691.70
2018-11-05T03:40:54.091Z,100688.19
2018-11-05T03:43:23.051Z,100681.95
2018-11-05T03:45:51.572Z,100692.95
2018-11-05T03:48:20.085Z,100692.30
2018-11-05T03:50:48.771Z,100694.68
2018-11-05T03:53:17.296Z,100689.52
2018-11-05T03:55:45.843Z,100693.03
2018-11-05T03:58:14.413Z,100685.55
2018-11-05T04:00:45.066Z,100684.63
2018-11-05T04:03:13.628Z,100675.87
2018-11-05T04:05:42.134Z,100677.66
2018-11-05T04:08:10.661Z,100678.06
2018-11-05T04:10:39.492Z,100672.70
2018-11-05T04:13:08.036Z,100678.84
2018-11-05T04:15:36.732Z,100675.61
2018-11-05T04:18:07.062Z,100671.91
2018-11-05T04:20:35.578Z,100673.53
2018-11-05T04:23:07.038Z,100677.48
2018-11-05T04:25:35.602Z,100676.14
2018-11-05T04:28:06.162Z,100678.31
2018-11-05T04:30:34.728Z,100671.07
2018-11-05T04:33:05.489Z,100668.06
2018-11-05T04:35:34.090Z,100664.96
2018-11-05T04:38:03.942Z,100678.09
2018-11-05T04:40:32.481Z,100676.55
2018-11-05T04:43:02.857Z,100671.67
2018-11-05T04:45:31.373Z,100672.08
2018-11-05T04:47:59.971Z,100672.08
2018-11-05T04:50:28.570Z,100675.55
2018-11-05T04:52:57.101Z,100667.20
2018-11-05T04:55:25.723Z,100656.43
2018-11-05T04:57:54.324Z,100645.56
2018-11-05T05:00:22.880Z,100646.80
2018-11-05T05:02:51.775Z,100641.88
2018-11-05T05:05:21.643Z,100634.97
2018-11-05T05:07:50.187Z,100641.36
2018-11-05T05:10:18.737Z,100643.77
2018-11-05T05:12:47.591Z,100640.64
2018-11-05T05:15:16.140Z,100640.84
2018-11-05T05:17:44.638Z,100635.48
2018-11-05T05:20:14.439Z,100638.77
2018-11-05T05:22:43.460Z,100635.30
2018-11-05T05:25:12.236Z,100636.55
2018-11-05T05:27:41.474Z,100635.38
2018-11-05T05:30:13.856Z,100630.47
2018-11-05T05:32:42.426Z,100631.38
2018-11-05T05:35:10.933Z,100626.06
2018-11-05T05:37:39.761Z,100624.04
2018-11-05T05:40:08.521Z,100627.05
2018-11-05T05:42:37.617Z,100627.25
2018-11-05T05:45:08.047Z,100643.78
2018-11-05T05:47:36.565Z,100642.86
2018-11-05T05:50:07.659Z,100641.20
2018-11-05T05:52:36.258Z,100642.39
2018-11-05T05:55:06.229Z,100644.30
2018-11-05T05:57:34.759Z,100649.25
2018-11-05T06:00:04.511Z,100643.86
2018-11-05T06:02:33.017Z,100646.31
2018-11-05T06:05:02.676Z,100639.66
2018-11-05T06:07:31.163Z,100642.91
2018-11-05T06:09:59.768Z,100649.53
2018-11-05T06:12:28.386Z,100648.19
2018-11-05T06:14:57.319Z,100639.51
2018-11-05T06:17:25.952Z,100644.66
2018-11-05T06:19:54.588Z,100642.79
2018-11-05T06:22:23.146Z,100649.81
2018-11-05T06:24:51.656Z,100655.25
2018-11-05T06:27:20.203Z,100659.56
2018-11-05T06:29:48.880Z,100657.06
2018-11-05T06:32:17.798Z,100659.56
2018-11-05T06:34:46.315Z,100661.67
2018-11-05T06:37:14.880Z,100668.22
2018-11-05T06:39:44.649Z,100656.55
2018-11-05T06:42:13.160Z,100651.48
2018-11-05T06:44:41.700Z,100653.03
2018-11-05T06:47:10.441Z,100643.09
2018-11-05T06:49:38.997Z,100648.77
2018-11-05T06:52:07.628Z,100649.24
2018-11-05T06:54:36.548Z,100651.42
2018-11-05T06:57:05.957Z,100658.27
2018-11-05T06:59:34.552Z,100668.64
2018-11-05T07:02:04.586Z,100664.67
2018-11-05T07:04:33.089Z,100669.19
2018-11-05T07:07:02.722Z,100668.66
2018-11-05T07:09:31.560Z,100670.88
2018-11-05T07:12:00.019Z,100668.86
2018-11-05T07:14:28.505Z,100675.97
2018-11-05T07:16:57.069Z,100662.27
2018-11-05T07:19:25.746Z,100653.73
2018-11-05T07:21:54.366Z,100650.80
2018-11-05T07:24:22.865Z,100644.14
2018-11-05T07:26:51.501Z,100644.14
2018-11-05T07:29:24.216Z,100641.07
2018-11-05T07:31:52.878Z,100636.58
2018-11-05T07:34:21.485Z,100649.72
2018-11-05T07:36:50.237Z,100644.30
2018-11-05T07:39:18.843Z,100645.89
2018-11-05T07:41:47.399Z,100644.40
2018-11-05T07:44:15.987Z,100650.63
2018-11-05T07:46:44.578Z,100643.27
2018-11-05T07:49:13.092Z,100636.83
2018-11-05T07:51:41.663Z,100639.01
2018-11-05T07:54:10.596Z,100625.80
2018-11-05T07:56:39.188Z,100631.13
2018-11-05T07:59:07.798Z,100634.59
2018-11-05T08:01:36.308Z,100636.73
2018-11-05T08:04:05.714Z,100634.87
2018-11-05T08:06:34.226Z,100638.40
2018-11-05T08:09:06.055Z,100643.48
2018-11-05T08:11:34.581Z,100650.70
2018-11-05T08:14:05.093Z,100645.16
2018-11-05T08:16:33.802Z,100643.48
2018-11-05T08:19:04.589Z,100644.39
2018-11-05T08:21:33.733Z,100641.86
2018-11-05T08:24:04.492Z,100634.55
2018-11-05T08:26:33.085Z,100631.64
2018-11-05T08:29:03.395Z,100627.33
2018-11-05T08:31:31.939Z,100634.16
2018-11-05T08:34:00.541Z,100636.87
2018-11-05T08:36:29.174Z,100640.63
2018-11-05T08:38:57.805Z,100639.16
2018-11-05T08:41:26.389Z,100638.66
2018-11-05T08:43:54.890Z,100634.03
2018-11-05T08:46:23.424Z,100634.86
2018-11-05T08:48:52.010Z,100637.50
2018-11-05T08:51:20.832Z,100635.31
2018-11-05T08:53:49.117Z,100636.27
2018-11-05T08:56:17.641Z,100629.52
2018-11-05T08:58:46.233Z,100625.55
2018-11-05T09:01:16.735Z,100619.48
2018-11-05T09:03:46.423Z,100620.95
2018-11-05T09:06:15.039Z,100616.42
2018-11-05T09:08:44.391Z,100616.81
2018-11-05T09:11:13.200Z,100622.68
2018-11-05T09:13:41.410Z,100620.88
2018-11-05T09:16:10.031Z,100627.70
2018-11-05T09:18:38.625Z,100623.93
2018-11-05T09:21:07.373Z,100613.19
2018-11-05T09:23:35.945Z,100615.27
2018-11-05T09:26:04.845Z,100612.63
2018-11-05T09:28:33.354Z,100617.48
2018-11-05T09:31:03.098Z,100606.56
2018-11-05T09:33:31.717Z,100599.61
2018-11-05T09:36:00.306Z,100590.56
2018-11-05T09:38:28.862Z,100597.16
2018-11-05T09:40:57.460Z,100599.75
2018-11-05T09:43:26.014Z,100603.33
2018-11-05T09:45:54.650Z,100598.98
2018-11-05T09:48:23.398Z,100592.78
2018-11-05T09:50:52.045Z,100589.52
2018-11-05T09:53:20.568Z,100592.16
2018-11-05T09:55:49.123Z,100598.10
2018-11-05T09:58:18.035Z,100585.87
2018-11-05T10:00:46.780Z,100581.64
2018-11-05T10:03:16.451Z,100579.41
2018-11-05T10:05:44.960Z,100571.98
2018-11-05T10:08:13.850Z,100565.66
2018-11-05T10:10:42.784Z,100564.80
2018-11-05T10:13:11.487Z,100557.45
2018-11-05T10:15:40.033Z,100564.88
2018-11-05T10:18:09.010Z,100562.67
2018-11-05T10:20:37.555Z,100559.82
2018-11-05T10:23:06.124Z,100557.76
2018-11-05T10:25:36.292Z,100567.78
2018-11-05T10:28:07.644Z,100563.77
2018-11-05T10:30:36.475Z,100562.29
2018-11-05T10:33:06.483Z,100561.94
2018-11-05T10:35:40.209Z,100564.34
2018-11-05T10:38:09.102Z,100568.20
2018-11-05T10:40:37.612Z,100563.70
2018-11-05T10:43:06.510Z,100571.23
2018-11-05T10:45:35.003Z,100572.87
2018-11-05T10:48:05.933Z,100575.33
2018-11-05T10:50:34.589Z,100571.88
2018-11-05T10:53:05.340Z,100570.42
2018-11-05T10:55:34.071Z,100572.99
2018-11-05T10:58:04.562Z,100571.16
2018-11-05T11:00:38.259Z,100564.66
2018-11-05T11:03:12.018Z,100549.50
2018-11-05T11:05:40.624Z,100552.09
2018-11-05T11:08:09.184Z,100555.17
2018-11-05T11:10:37.732Z,100555.58
2018-11-05T11:13:06.327Z,100557.61
2018-11-05T11:15:34.860Z,100543.28
2018-11-05T11:18:04.082Z,100547.17
2018-11-05T11:20:32.620Z,100539.72
2018-11-05T11:23:03.541Z,100552.41
2018-11-05T11:25:32.089Z,100552.44
2018-11-05T11:28:00.775Z,100546.09
2018-11-05T11:30:29.656Z,100536.29
2018-11-05T11:32:58.159Z,100540.12
2018-11-05T11:35:26.668Z,100548.16
2018-11-05T11:37:55.660Z,100556.81
2018-11-05T11:40:24.680Z,100552.47
2018-11-05T11:42:53.311Z,100545.17
2018-11-05T11:45:22.797Z,100543.56
2018-11-05T11:47:51.354Z,100548.66
2018-11-05T11:50:20.411Z,100545.29
2018-11-05T11:52:49.596Z,100543.56
2018-11-05T11:55:20.703Z,100537.84
2018-11-05T11:57:49.284Z,100540.47
2018-11-05T12:00:23.183Z,100532.88
2018-11-05T12:02:52.417Z,100524.80
2018-11-05T12:05:21.296Z,100514.09
2018-11-05T12:07:49.688Z,100520.72
2018-11-05T12:10:21.314Z,100511.77
2018-11-05T12:12:49.910Z,100501.94
2018-11-05T12:15:21.348Z,100502.57
2018-11-05T12:17:50.981Z,100487.34
2018-11-05T12:20:20.835Z,100489.80
2018-11-05T12:22:50.340Z,100484.50
2018-11-05T12:25:18.936Z,100479.33
2018-11-05T12:27:47.471Z,100478.02
2018-11-05T12:30:18.987Z,100482.47
2018-11-05T12:32:48.354Z,100468.63
2018-11-05T12:35:17.049Z,100466.55
2018-11-05T12:37:46.735Z,100474.48
2018-11-05T12:40:16.626Z,100468.95
2018-11-05T12:42:46.258Z,100462.87
2018-11-05T12:45:14.879Z,100451.55
2018-11-05T12:47:43.457Z,100462.26
2018-11-05T12:50:16.118Z,100449.16
2018-11-05T12:52:45.782Z,100451.98
2018-11-05T12:55:14.651Z,100438.00
2018-11-05T12:57:43.249Z,100434.08
2018-11-05T13:00:15.958Z,100437.27
2018-11-05T13:02:44.840Z,100435.48
2018-11-05T13:05:14.439Z,100438.63
2018-11-05T13:07:43.057Z,100430.33
2018-11-05T13:10:13.093Z,100433.47
2018-11-05T13:12:41.814Z,100423.50
2018-11-05T13:15:11.132Z,100427.16
2018-11-05T13:17:41.230Z,100434.36
2018-11-05T13:20:12.975Z,100437.80
2018-11-05T13:22:48.325Z,100439.41
2018-11-05T13:25:16.860Z,100433.27
2018-11-05T13:27:46.921Z,100442.08
2018-11-05T13:30:15.984Z,100436.36
2018-11-05T13:32:44.945Z,100432.12
2018-11-05T13:35:15.020Z,100432.02
2018-11-05T13:37:44.237Z,100440.95
2018-11-05T13:40:14.812Z,100439.36
2018-11-05T13:42:43.853Z,100431.77
2018-11-05T13:45:13.658Z,100424.77
2018-11-05T13:47:42.936Z,100422.81
2018-11-05T13:50:12.003Z,100417.59
2018-11-05T13:52:40.783Z,100417.11
2018-11-05T13:55:11.540Z,100418.73
2018-11-05T13:57:40.532Z,100414.45
2018-11-05T14:00:11.279Z,100414.84
2018-11-05T14:02:40.601Z,100402.52
2018-11-05T14:05:09.806Z,100413.23
2018-11-05T14:07:38.602Z,100398.75
2018-11-05T14:10:09.475Z,100391.64
2018-11-05T14:12:38.771Z,100393.17
2018-11-05T14:15:07.782Z,100386.64
2018-11-05T14:17:36.533Z,100387.57
2018-11-05T14:20:05.899Z,100380.00
2018-11-05T14:22:34.578Z,100381.28
2018-11-05T14:25:05.157Z,100385.66
2018-11-05T14:27:33.905Z,100377.71
2018-11-05T14:30:04.149Z,100373.00
2018-11-05T14:32:32.422Z,100365.59
2018-11-05T14:35:00.977Z,100364.69
2018-11-05T14:37:29.727Z,100364.23
2018-11-05T14:39:58.496Z,100359.45
2018-11-05T14:42:27.241Z,100361.04
2018-11-05T14:44:55.748Z,100363.38
2018-11-05T14:47:24.279Z,100362.25
2018-11-05T14:49:52.920Z,100360.29
2018-11-05T14:52:21.473Z,100367.36
2018-11-05T14:54:50.049Z,100375.60
2018-11-05T14:57:19.066Z,100363.15
2018-11-05T14:59:47.670Z,100360.70
2018-11-05T15:02:21.421Z,100351.00
2018-11-05T15:04:49.990Z,100342.37
2018-11-05T15:07:18.591Z,100337.25
2018-11-05T15:09:47.088Z,100330.94
2018-11-05T15:12:16.995Z,100338.72
2018-11-05T15:14:45.535Z,100334.84
2018-11-05T15:17:14.091Z,100324.62
2018-11-05T15:19:43.068Z,100329.40
2018-11-05T15:22:11.255Z,100334.36
2018-11-05T15:24:39.880Z,100329.81
2018-11-05T15:27:08.500Z,100325.66
2018-11-05T15:29:38.402Z,100327.10
2018-11-05T15:32:07.685Z,100323.39
2018-11-05T15:34:36.390Z,100326.73
2018-11-05T15:37:05.603Z,100318.86
2018-11-05T15:39:34.179Z,100324.45
2018-11-05T15:42:05.883Z,100323.55
2018-11-05T15:44:34.426Z,100321.87
2018-11-05T15:47:05.465Z,100313.97
2018-11-05T15:49:33.987Z,100317.95
2018-11-05T15:52:04.054Z,100314.57
2018-11-05T15:54:32.751Z,100316.86
2018-11-05T15:57:03.165Z,100313.73
2018-11-05T15:59:31.721Z,100313.14
2018-11-05T16:02:05.759Z,100315.95
2018-11-05T16:04:34.725Z,100328.52
2018-11-05T16:07:04.645Z,100315.30
2018-11-05T16:09:33.213Z,100326.23
2018-11-05T16:12:04.392Z,100327.29
2018-11-05T16:14:32.920Z,100333.80
2018-11-05T16:17:03.158Z,100339.12
2018-11-05T16:19:31.930Z,100345.83
2018-11-05T16:22:00.661Z,100343.61
2018-11-05T16:24:29.680Z,100354.30
2018-11-05T16:26:59.747Z,100355.72
2018-11-05T16:29:28.277Z,100354.94
2018-11-05T16:31:56.947Z,100351.76
2018-11-05T16:34:25.603Z,100353.92
2018-11-05T16:36:54.356Z,100365.52
2018-11-05T16:39:22.905Z,100359.58
2018-11-05T16:41:51.955Z,100353.30
2018-11-05T16:44:20.589Z,100357.98
2018-11-05T16:46:49.553Z,100356.63
2018-11-05T16:49:18.199Z,100349.59
2018-11-05T16:51:46.787Z,100343.48
2018-11-05T16:54:17.337Z,100338.07
2018-11-05T16:56:45.873Z,100346.80
2018-11-05T16:59:14.588Z,100335.59
2018-11-05T17:01:43.447Z,100340.00
2018-11-05T17:04:11.875Z,100352.81
2018-11-05T17:06:40.909Z,100347.52
2018-11-05T17:09:09.946Z,100348.44
2018-11-05T17:11:38.574Z,100348.66
2018-11-05T17:14:07.369Z,100357.62
2018-11-05T17:16:36.005Z,100353.03
2018-11-05T17:19:07.479Z,100351.48
2018-11-05T17:21:36.023Z,100348.64
2018-11-05T17:24:06.850Z,100353.14
2018-11-05T17:26:35.557Z,100352.56
2018-11-05T17:29:06.166Z,100353.02
2018-11-05T17:31:34.903Z,100353.78
2018-11-05T17:34:05.163Z,100357.77
2018-11-05T17:36:34.007Z,100358.69
2018-11-05T17:39:05.789Z,100353.22
2018-11-05T17:41:36.967Z,100354.78
2018-11-05T17:44:06.838Z,100355.55
2018-11-05T17:46:36.277Z,100353.68
2018-11-05T17:49:06.310Z,100362.50
2018-11-05T17:51:35.338Z,100357.66
2018-11-05T17:54:07.114Z,100350.36
2018-11-05T17:56:35.629Z,100352.02
2018-11-05T17:59:08.552Z,100350.06
2018-11-05T18:01:37.253Z,100347.93
2018-11-05T18:04:06.983Z,100346.73
2018-11-05T18:06:35.492Z,100333.09
2018-11-05T18:09:08.718Z,100337.44
2018-11-05T18:11:37.591Z,100324.53
2018-11-05T18:14:08.021Z,100324.74
2018-11-05T18:16:36.556Z,100319.19
2018-11-05T18:19:06.729Z,100323.00
2018-11-05T18:21:35.252Z,100319.52
2018-11-05T18:24:05.782Z,100320.72
2018-11-05T18:26:34.591Z,100325.08
2018-11-05T18:29:04.392Z,100325.66
2018-11-05T18:31:33.285Z,100326.03
2018-11-05T18:34:03.885Z,100314.45
2018-11-05T18:36:32.519Z,100317.00
2018-11-05T18:39:02.885Z,100303.09
2018-11-05T18:41:31.783Z,100293.06
2018-11-05T18:44:00.376Z,100290.05
2018-11-05T18:46:28.940Z,100284.47
2018-11-05T18:48:57.499Z,100287.17
2018-11-05T18:51:26.113Z,100289.62
2018-11-05T18:53:55.509Z,100288.58
2018-11-05T18:56:24.119Z,100281.98
2018-11-05T18:58:52.645Z,100290.60
2018-11-05T19:01:21.775Z,100297.56
2018-11-05T19:03:50.392Z,100297.16
2018-11-05T19:06:18.901Z,100303.79
2018-11-05T19:08:47.538Z,100298.33
2018-11-05T19:13:58.749Z,100292.64
2018-11-05T19:16:27.825Z,100289.48
2018-11-05T19:18:56.443Z,100286.79
2018-11-05T19:21:25.217Z,100277.80
2018-11-05T19:23:53.992Z,100270.68
2018-11-05T19:26:22.545Z,100279.20
2018-11-05T19:28:51.205Z,100286.53
2018-11-05T19:31:19.915Z,100288.24
2018-11-05T19:33:48.565Z,100298.05
2018-11-05T19:36:18.345Z,100302.16
2018-11-05T19:38:46.986Z,100306.61
2018-11-05T19:41:16.025Z,100307.07
2018-11-05T19:43:45.400Z,100309.04
2018-11-05T19:46:14.010Z,100305.64
2018-11-05T19:48:42.653Z,100315.84
2018-11-05T19:51:12.067Z,100308.67
2018-11-05T19:53:41.107Z,100316.59
2018-11-05T19:56:10.075Z,100306.80
2018-11-05T19:58:38.611Z,100298.37
2018-11-05T20:01:07.210Z,100296.47
2018-11-05T20:03:36.174Z,100299.66
2018-11-05T20:06:06.013Z,100298.00
2018-11-05T20:08:34.904Z,100293.12
2018-11-05T20:11:05.227Z,100296.25
2018-11-05T20:13:34.241Z,100302.17
2018-11-05T20:16:04.573Z,100306.55
2018-11-05T20:18:34.000Z,100301.25
2018-11-05T20:21:06.124Z,100297.20
2018-11-05T20:23:34.811Z,100299.31
2018-11-05T20:26:04.784Z,100300.30
2018-11-05T20:28:33.557Z,100299.59
2018-11-05T20:31:03.880Z,100301.30
2018-11-05T20:33:32.939Z,100305.55
2018-11-05T20:36:02.419Z,100305.45
2018-11-05T20:38:31.052Z,100304.41
2018-11-05T20:40:59.955Z,100292.93
2018-11-05T20:43:28.780Z,100286.23
2018-11-05T20:45:57.449Z,100290.75
2018-11-05T20:48:26.263Z,100288.52
2018-11-05T20:50:55.408Z,100290.29
2018-11-05T20:53:24.054Z,100294.03
2018-11-05T20:55:53.094Z,100285.88
2018-11-05T20:58:21.817Z,100276.42
2018-11-05T21:00:50.491Z,100277.26
2018-11-05T21:03:19.088Z,100276.18
2018-11-05T21:05:48.014Z,100273.36
2018-11-05T21:08:16.623Z,100270.36
2018-11-05T21:10:45.559Z,100268.85
2018-11-05T21:13:14.171Z,100268.73
2018-11-05T21:15:42.879Z,100263.73
2018-11-05T21:18:11.768Z,100253.93
2018-11-05T21:20:40.403Z,100250.19
2018-11-05T21:23:09.234Z,100251.45
2018-11-05T21:25:37.768Z,100252.33
2018-11-05T21:28:06.581Z,100249.98
2018-11-05T21:30:35.365Z,100253.39
2018-11-05T21:33:05.283Z,100254.40
2018-11-05T21:35:33.895Z,100258.72
2018-11-05T21:38:03.885Z,100259.81
2018-11-05T21:40:32.443Z,100252.64
2018-11-05T21:43:02.798Z,100253.16
2018-11-05T21:45:31.342Z,100258.88
2018-11-05T21:47:59.998Z,100261.75
2018-11-05T21:50:29.019Z,100259.72
2018-11-05T21:52:57.710Z,100261.06
2018-11-05T21:55:26.697Z,100254.70
2018-11-05T21:57:55.214Z,100255.72
2018-11-05T22:00:25.144Z,100246.67
2018-11-05T22:02:59.063Z,100246.23
2018-11-05T22:05:27.700Z,100246.30
2018-11-05T22:07:56.259Z,100244.75
2018-11-05T22:10:25.147Z,100239.95
2018-11-05T22:12:53.721Z,100254.13
2018-11-05T22:15:22.258Z,100248.94
2018-11-05T22:17:50.839Z,100255.48
2018-11-05T22:20:19.400Z,100252.17
2018-11-05T22:22:48.030Z,100255.36
2018-11-05T22:25:16.594Z,100258.05
2018-11-05T22:27:45.157Z,100265.30
2018-11-05T22:30:13.920Z,100267.69
2018-11-05T22:32:42.428Z,100260.44
2018-11-05T22:35:10.994Z,100269.86
2018-11-05T22:37:39.599Z,100269.27
2018-11-05T22:40:10.693Z,100268.65
2018-11-05T22:42:39.249Z,100274.48
2018-11-05T22:45:08.411Z,100280.94
2018-11-05T22:47:37.088Z,100278.83
2018-11-05T22:50:07.092Z,100275.55
2018-11-05T22:52:36.241Z,100274.41
2018-11-05T22:55:05.756Z,100272.99
2018-11-05T22:57:34.384Z,100275.55
2018-11-05T23:00:05.615Z,100268.83
2018-11-05T23:02:34.764Z,100269.86
2018-11-05T23:05:04.554Z,100264.09
2018-11-05T23:07:33.073Z,100254.08
2018-11-05T23:10:03.545Z,100253.39
2018-11-05T23:12:32.068Z,100260.50
2018-11-05T23:15:00.580Z,100261.92
2018-11-05T23:17:29.108Z,100258.05
2018-11-05T23:19:57.753Z,100264.48
2018-11-05T23:22:32.677Z,100255.05
2018-11-05T23:25:03.330Z,100260.44
2018-11-05T23:27:32.199Z,100257.74
2018-11-05T23:30:00.883Z,100256.33
2018-11-05T23:32:30.691Z,100256.46
2018-11-05T23:34:59.379Z,100257.22
2018-11-05T23:37:27.913Z,100260.87
2018-11-05T23:39:56.425Z,100263.50
2018-11-05T23:42:24.974Z,100269.86
2018-11-05T23:44:53.590Z,100269.86
2018-11-05T23:47:26.294Z,100276.83
2018-11-05T23:49:54.782Z,100276.08
2018-11-05T23:52:23.644Z,100281.68
2018-11-05T23:54:52.256Z,100271.14
2018-11-05T23:57:21.104Z,100265.06
2018-11-05T23:59:49.923Z,100266.12
